sensor_id;sensor_type;location;lat;lon;timestamp;P1;durP1;ratioP1;P2;durP2;ratioP2
51792;SDS011;37850;53.178;6.376;2023-11-21T00:00:10;22.52;;;4.72;;
51792;SDS011;37850;53.178;6.376;2023-11-21T00:02:37;22.50;;;4.47;;
51792;SDS011;37850;53.178;6.376;2023-11-21T00:05:05;16.90;;;4.60;;
51792;SDS011;37850;53.178;6.376;2023-11-21T00:07:36;23.25;;;4.97;;
51792;SDS011;37850;53.178;6.376;2023-11-21T00:10:02;18.83;;;5.20;;
51792;SDS011;37850;53.178;6.376;2023-11-21T00:12:30;21.05;;;5.65;;
51792;SDS011;37850;53.178;6.376;2023-11-21T00:14:56;19.10;;;5.25;;
51792;SDS011;37850;53.178;6.376;2023-11-21T00:17:23;20.38;;;5.45;;
51792;SDS011;37850;53.178;6.376;2023-11-21T00:19:49;23.23;;;5.30;;
51792;SDS011;37850;53.178;6.376;2023-11-21T00:22:17;28.35;;;6.40;;
51792;SDS011;37850;53.178;6.376;2023-11-21T00:24:43;19.77;;;5.53;;
51792;SDS011;37850;53.178;6.376;2023-11-21T00:27:09;21.30;;;4.95;;
51792;SDS011;37850;53.178;6.376;2023-11-21T00:29:35;18.15;;;5.53;;
51792;SDS011;37850;53.178;6.376;2023-11-21T00:32:00;23.52;;;5.85;;
51792;SDS011;37850;53.178;6.376;2023-11-21T00:34:27;22.70;;;5.18;;
51792;SDS011;37850;53.178;6.376;2023-11-21T00:36:52;23.48;;;5.65;;
51792;SDS011;37850;53.178;6.376;2023-11-21T00:39:18;18.45;;;5.07;;
51792;SDS011;37850;53.178;6.376;2023-11-21T00:41:44;29.73;;;5.50;;
51792;SDS011;37850;53.178;6.376;2023-11-21T00:44:10;21.30;;;5.30;;
51792;SDS011;37850;53.178;6.376;2023-11-21T00:46:36;17.70;;;5.07;;
51792;SDS011;37850;53.178;6.376;2023-11-21T00:49:02;18.35;;;4.95;;
51792;SDS011;37850;53.178;6.376;2023-11-21T00:51:29;21.33;;;5.65;;
51792;SDS011;37850;53.178;6.376;2023-11-21T00:53:55;16.35;;;5.70;;
51792;SDS011;37850;53.178;6.376;2023-11-21T00:56:21;23.05;;;5.57;;
51792;SDS011;37850;53.178;6.376;2023-11-21T00:58:47;21.45;;;6.30;;
51792;SDS011;37850;53.178;6.376;2023-11-21T01:01:15;20.20;;;5.57;;
51792;SDS011;37850;53.178;6.376;2023-11-21T01:03:42;19.33;;;6.40;;
51792;SDS011;37850;53.178;6.376;2023-11-21T01:06:07;21.65;;;5.40;;
51792;SDS011;37850;53.178;6.376;2023-11-21T01:08:34;18.25;;;5.18;;
51792;SDS011;37850;53.178;6.376;2023-11-21T01:11:00;17.50;;;5.88;;
51792;SDS011;37850;53.178;6.376;2023-11-21T01:13:26;18.05;;;5.53;;
51792;SDS011;37850;53.178;6.376;2023-11-21T01:15:53;19.25;;;6.03;;
51792;SDS011;37850;53.178;6.376;2023-11-21T01:18:19;19.85;;;6.22;;
51792;SDS011;37850;53.178;6.376;2023-11-21T01:20:45;20.27;;;6.45;;
51792;SDS011;37850;53.178;6.376;2023-11-21T01:23:12;18.52;;;5.75;;
51792;SDS011;37850;53.178;6.376;2023-11-21T01:25:38;23.65;;;5.55;;
51792;SDS011;37850;53.178;6.376;2023-11-21T01:28:04;21.75;;;6.50;;
51792;SDS011;37850;53.178;6.376;2023-11-21T01:30:30;19.33;;;5.88;;
51792;SDS011;37850;53.178;6.376;2023-11-21T01:32:57;14.23;;;5.22;;
51792;SDS011;37850;53.178;6.376;2023-11-21T01:35:23;12.90;;;5.03;;
51792;SDS011;37850;53.178;6.376;2023-11-21T01:37:49;16.98;;;5.18;;
51792;SDS011;37850;53.178;6.376;2023-11-21T01:40:15;20.45;;;5.72;;
51792;SDS011;37850;53.178;6.376;2023-11-21T01:42:41;18.88;;;5.60;;
51792;SDS011;37850;53.178;6.376;2023-11-21T01:45:08;17.35;;;5.28;;
51792;SDS011;37850;53.178;6.376;2023-11-21T01:47:35;19.52;;;6.03;;
51792;SDS011;37850;53.178;6.376;2023-11-21T01:50:02;16.05;;;5.15;;
51792;SDS011;37850;53.178;6.376;2023-11-21T01:52:30;14.38;;;5.35;;
51792;SDS011;37850;53.178;6.376;2023-11-21T01:54:56;14.77;;;5.03;;
51792;SDS011;37850;53.178;6.376;2023-11-21T01:57:24;11.40;;;4.60;;
51792;SDS011;37850;53.178;6.376;2023-11-21T01:59:52;17.77;;;5.63;;
51792;SDS011;37850;53.178;6.376;2023-11-21T02:02:20;17.88;;;6.28;;
51792;SDS011;37850;53.178;6.376;2023-11-21T02:04:49;13.93;;;5.45;;
51792;SDS011;37850;53.178;6.376;2023-11-21T02:07:15;19.52;;;5.60;;
51792;SDS011;37850;53.178;6.376;2023-11-21T02:09:40;18.33;;;5.75;;
51792;SDS011;37850;53.178;6.376;2023-11-21T02:12:07;18.35;;;5.57;;
51792;SDS011;37850;53.178;6.376;2023-11-21T02:14:35;21.77;;;6.53;;
51792;SDS011;37850;53.178;6.376;2023-11-21T02:17:02;14.05;;;5.97;;
51792;SDS011;37850;53.178;6.376;2023-11-21T02:19:28;20.25;;;5.78;;
51792;SDS011;37850;53.178;6.376;2023-11-21T02:21:56;13.63;;;5.15;;
51792;SDS011;37850;53.178;6.376;2023-11-21T02:24:28;18.33;;;5.40;;
51792;SDS011;37850;53.178;6.376;2023-11-21T02:26:53;17.00;;;6.35;;
51792;SDS011;37850;53.178;6.376;2023-11-21T02:29:20;22.38;;;6.97;;
51792;SDS011;37850;53.178;6.376;2023-11-21T02:31:47;19.33;;;5.90;;
51792;SDS011;37850;53.178;6.376;2023-11-21T02:34:15;21.50;;;6.15;;
51792;SDS011;37850;53.178;6.376;2023-11-21T02:36:41;15.65;;;5.95;;
51792;SDS011;37850;53.178;6.376;2023-11-21T02:39:08;19.60;;;7.07;;
51792;SDS011;37850;53.178;6.376;2023-11-21T02:41:35;16.88;;;6.47;;
51792;SDS011;37850;53.178;6.376;2023-11-21T02:44:01;17.48;;;6.63;;
51792;SDS011;37850;53.178;6.376;2023-11-21T02:46:27;24.52;;;6.88;;
51792;SDS011;37850;53.178;6.376;2023-11-21T02:48:53;27.90;;;7.00;;
51792;SDS011;37850;53.178;6.376;2023-11-21T02:51:19;22.48;;;7.15;;
51792;SDS011;37850;53.178;6.376;2023-11-21T02:53:48;18.50;;;7.35;;
51792;SDS011;37850;53.178;6.376;2023-11-21T02:56:16;20.17;;;7.53;;
51792;SDS011;37850;53.178;6.376;2023-11-21T02:58:42;27.67;;;8.25;;
51792;SDS011;37850;53.178;6.376;2023-11-21T03:01:09;35.60;;;8.98;;
51792;SDS011;37850;53.178;6.376;2023-11-21T03:03:36;33.03;;;9.32;;
51792;SDS011;37850;53.178;6.376;2023-11-21T03:06:05;27.92;;;9.18;;
51792;SDS011;37850;53.178;6.376;2023-11-21T03:08:31;28.73;;;9.88;;
51792;SDS011;37850;53.178;6.376;2023-11-21T03:10:57;25.88;;;9.35;;
51792;SDS011;37850;53.178;6.376;2023-11-21T03:13:23;31.45;;;9.93;;
51792;SDS011;37850;53.178;6.376;2023-11-21T03:15:49;25.92;;;10.68;;
51792;SDS011;37850;53.178;6.376;2023-11-21T03:18:14;25.15;;;9.55;;
51792;SDS011;37850;53.178;6.376;2023-11-21T03:20:41;36.38;;;10.50;;
51792;SDS011;37850;53.178;6.376;2023-11-21T03:23:11;29.65;;;11.02;;
51792;SDS011;37850;53.178;6.376;2023-11-21T03:25:37;32.20;;;11.68;;
51792;SDS011;37850;53.178;6.376;2023-11-21T03:28:03;30.10;;;10.77;;
51792;SDS011;37850;53.178;6.376;2023-11-21T03:30:29;34.80;;;11.93;;
51792;SDS011;37850;53.178;6.376;2023-11-21T03:32:55;32.97;;;10.98;;
51792;SDS011;37850;53.178;6.376;2023-11-21T03:35:22;25.35;;;10.15;;
51792;SDS011;37850;53.178;6.376;2023-11-21T03:37:48;29.42;;;10.93;;
51792;SDS011;37850;53.178;6.376;2023-11-21T03:40:14;32.50;;;11.73;;
51792;SDS011;37850;53.178;6.376;2023-11-21T03:42:39;28.48;;;12.02;;
51792;SDS011;37850;53.178;6.376;2023-11-21T03:45:05;35.20;;;11.15;;
51792;SDS011;37850;53.178;6.376;2023-11-21T03:47:32;33.00;;;10.48;;
51792;SDS011;37850;53.178;6.376;2023-11-21T03:49:57;30.35;;;10.88;;
51792;SDS011;37850;53.178;6.376;2023-11-21T03:52:24;38.70;;;11.45;;
51792;SDS011;37850;53.178;6.376;2023-11-21T03:54:49;35.42;;;10.98;;
51792;SDS011;37850;53.178;6.376;2023-11-21T03:57:16;30.42;;;10.65;;
51792;SDS011;37850;53.178;6.376;2023-11-21T03:59:42;29.52;;;10.93;;
51792;SDS011;37850;53.178;6.376;2023-11-21T04:02:08;28.92;;;10.30;;
51792;SDS011;37850;53.178;6.376;2023-11-21T04:04:35;29.35;;;10.40;;
51792;SDS011;37850;53.178;6.376;2023-11-21T04:07:01;28.33;;;10.65;;
51792;SDS011;37850;53.178;6.376;2023-11-21T04:09:26;31.67;;;10.25;;
51792;SDS011;37850;53.178;6.376;2023-11-21T04:11:53;33.38;;;12.05;;
51792;SDS011;37850;53.178;6.376;2023-11-21T04:14:19;27.38;;;11.02;;
51792;SDS011;37850;53.178;6.376;2023-11-21T04:16:45;28.52;;;11.45;;
51792;SDS011;37850;53.178;6.376;2023-11-21T04:19:11;27.83;;;11.00;;
51792;SDS011;37850;53.178;6.376;2023-11-21T04:21:39;25.13;;;10.35;;
51792;SDS011;37850;53.178;6.376;2023-11-21T04:24:06;31.35;;;11.05;;
51792;SDS011;37850;53.178;6.376;2023-11-21T04:26:33;33.72;;;12.57;;
51792;SDS011;37850;53.178;6.376;2023-11-21T04:28:59;29.42;;;11.77;;
51792;SDS011;37850;53.178;6.376;2023-11-21T04:31:25;34.10;;;12.98;;
51792;SDS011;37850;53.178;6.376;2023-11-21T04:33:50;29.83;;;11.80;;
51792;SDS011;37850;53.178;6.376;2023-11-21T04:36:16;25.58;;;11.48;;
51792;SDS011;37850;53.178;6.376;2023-11-21T04:38:42;28.17;;;11.57;;
51792;SDS011;37850;53.178;6.376;2023-11-21T04:41:08;31.33;;;11.95;;
51792;SDS011;37850;53.178;6.376;2023-11-21T04:43:33;25.90;;;10.80;;
51792;SDS011;37850;53.178;6.376;2023-11-21T04:45:59;27.80;;;10.32;;
51792;SDS011;37850;53.178;6.376;2023-11-21T04:48:27;24.23;;;10.35;;
51792;SDS011;37850;53.178;6.376;2023-11-21T04:50:52;21.25;;;9.30;;
51792;SDS011;37850;53.178;6.376;2023-11-21T04:53:18;22.60;;;9.65;;
51792;SDS011;37850;53.178;6.376;2023-11-21T04:55:45;24.38;;;9.88;;
51792;SDS011;37850;53.178;6.376;2023-11-21T04:58:11;24.73;;;10.00;;
51792;SDS011;37850;53.178;6.376;2023-11-21T05:00:37;28.45;;;10.93;;
51792;SDS011;37850;53.178;6.376;2023-11-21T05:03:03;22.88;;;9.60;;
51792;SDS011;37850;53.178;6.376;2023-11-21T05:05:30;26.13;;;10.50;;
51792;SDS011;37850;53.178;6.376;2023-11-21T05:07:56;30.25;;;10.88;;
51792;SDS011;37850;53.178;6.376;2023-11-21T05:10:21;30.58;;;10.57;;
51792;SDS011;37850;53.178;6.376;2023-11-21T05:12:47;26.77;;;10.75;;
51792;SDS011;37850;53.178;6.376;2023-11-21T05:15:15;28.38;;;9.93;;
51792;SDS011;37850;53.178;6.376;2023-11-21T05:17:46;25.77;;;10.05;;
51792;SDS011;37850;53.178;6.376;2023-11-21T05:20:15;26.85;;;10.43;;
51792;SDS011;37850;53.178;6.376;2023-11-21T05:22:48;28.45;;;10.15;;
51792;SDS011;37850;53.178;6.376;2023-11-21T05:25:14;19.10;;;9.27;;
51792;SDS011;37850;53.178;6.376;2023-11-21T05:27:42;24.50;;;9.27;;
51792;SDS011;37850;53.178;6.376;2023-11-21T05:30:07;22.50;;;9.00;;
51792;SDS011;37850;53.178;6.376;2023-11-21T05:32:37;21.77;;;9.93;;
51792;SDS011;37850;53.178;6.376;2023-11-21T05:35:03;19.40;;;8.82;;
51792;SDS011;37850;53.178;6.376;2023-11-21T05:40:00;23.75;;;9.18;;
51792;SDS011;37850;53.178;6.376;2023-11-21T05:42:31;25.02;;;10.20;;
51792;SDS011;37850;53.178;6.376;2023-11-21T05:44:57;26.95;;;9.93;;
51792;SDS011;37850;53.178;6.376;2023-11-21T05:47:38;29.38;;;10.07;;
51792;SDS011;37850;53.178;6.376;2023-11-21T05:50:06;20.48;;;9.35;;
51792;SDS011;37850;53.178;6.376;2023-11-21T05:52:36;22.73;;;9.73;;
51792;SDS011;37850;53.178;6.376;2023-11-21T05:55:02;24.80;;;9.93;;
51792;SDS011;37850;53.178;6.376;2023-11-21T05:57:30;29.05;;;10.50;;
51792;SDS011;37850;53.178;6.376;2023-11-21T05:59:55;29.33;;;11.93;;
51792;SDS011;37850;53.178;6.376;2023-11-21T06:02:21;30.13;;;11.95;;
51792;SDS011;37850;53.178;6.376;2023-11-21T06:04:47;28.40;;;11.60;;
51792;SDS011;37850;53.178;6.376;2023-11-21T06:07:12;26.30;;;12.10;;
51792;SDS011;37850;53.178;6.376;2023-11-21T06:09:38;24.80;;;11.63;;
51792;SDS011;37850;53.178;6.376;2023-11-21T06:12:05;28.27;;;12.88;;
51792;SDS011;37850;53.178;6.376;2023-11-21T06:14:31;33.17;;;13.30;;
51792;SDS011;37850;53.178;6.376;2023-11-21T06:17:00;27.10;;;12.75;;
51792;SDS011;37850;53.178;6.376;2023-11-21T06:19:26;29.15;;;13.45;;
51792;SDS011;37850;53.178;6.376;2023-11-21T06:21:51;32.63;;;13.27;;
51792;SDS011;37850;53.178;6.376;2023-11-21T06:24:17;28.98;;;13.77;;
51792;SDS011;37850;53.178;6.376;2023-11-21T06:26:43;26.23;;;12.95;;
51792;SDS011;37850;53.178;6.376;2023-11-21T06:29:09;29.23;;;13.35;;
51792;SDS011;37850;53.178;6.376;2023-11-21T06:31:36;31.98;;;13.68;;
51792;SDS011;37850;53.178;6.376;2023-11-21T06:34:02;32.35;;;14.18;;
51792;SDS011;37850;53.178;6.376;2023-11-21T06:36:28;28.92;;;14.13;;
51792;SDS011;37850;53.178;6.376;2023-11-21T06:38:54;30.55;;;13.68;;
51792;SDS011;37850;53.178;6.376;2023-11-21T06:41:20;26.50;;;11.75;;
51792;SDS011;37850;53.178;6.376;2023-11-21T06:43:46;24.88;;;11.02;;
51792;SDS011;37850;53.178;6.376;2023-11-21T06:46:13;27.02;;;10.73;;
51792;SDS011;37850;53.178;6.376;2023-11-21T06:48:41;23.95;;;10.60;;
51792;SDS011;37850;53.178;6.376;2023-11-21T06:51:07;21.15;;;10.52;;
51792;SDS011;37850;53.178;6.376;2023-11-21T06:53:33;22.60;;;10.40;;
51792;SDS011;37850;53.178;6.376;2023-11-21T06:56:00;23.17;;;11.35;;
51792;SDS011;37850;53.178;6.376;2023-11-21T06:58:26;27.98;;;11.80;;
51792;SDS011;37850;53.178;6.376;2023-11-21T07:00:52;28.40;;;12.13;;
51792;SDS011;37850;53.178;6.376;2023-11-21T07:03:17;28.70;;;12.07;;
51792;SDS011;37850;53.178;6.376;2023-11-21T07:05:44;29.70;;;12.98;;
51792;SDS011;37850;53.178;6.376;2023-11-21T07:08:10;28.13;;;13.20;;
51792;SDS011;37850;53.178;6.376;2023-11-21T07:10:37;24.17;;;11.65;;
51792;SDS011;37850;53.178;6.376;2023-11-21T07:13:03;22.08;;;11.18;;
51792;SDS011;37850;53.178;6.376;2023-11-21T07:15:29;22.77;;;12.32;;
51792;SDS011;37850;53.178;6.376;2023-11-21T07:17:54;25.67;;;12.45;;
51792;SDS011;37850;53.178;6.376;2023-11-21T07:20:20;23.25;;;12.50;;
51792;SDS011;37850;53.178;6.376;2023-11-21T07:22:46;23.17;;;12.38;;
51792;SDS011;37850;53.178;6.376;2023-11-21T07:25:12;24.45;;;11.98;;
51792;SDS011;37850;53.178;6.376;2023-11-21T07:27:38;24.85;;;12.20;;
51792;SDS011;37850;53.178;6.376;2023-11-21T07:30:03;26.10;;;13.30;;
51792;SDS011;37850;53.178;6.376;2023-11-21T07:32:31;26.95;;;14.05;;
51792;SDS011;37850;53.178;6.376;2023-11-21T07:34:57;29.58;;;15.07;;
51792;SDS011;37850;53.178;6.376;2023-11-21T07:37:24;29.63;;;15.23;;
51792;SDS011;37850;53.178;6.376;2023-11-21T07:39:53;27.10;;;14.30;;
51792;SDS011;37850;53.178;6.376;2023-11-21T07:42:23;27.38;;;13.73;;
51792;SDS011;37850;53.178;6.376;2023-11-21T07:44:51;31.58;;;15.77;;
51792;SDS011;37850;53.178;6.376;2023-11-21T07:47:17;29.77;;;16.13;;
51792;SDS011;37850;53.178;6.376;2023-11-21T07:49:43;33.72;;;17.15;;
51792;SDS011;37850;53.178;6.376;2023-11-21T07:52:09;31.13;;;16.60;;
51792;SDS011;37850;53.178;6.376;2023-11-21T07:54:35;31.35;;;16.48;;
51792;SDS011;37850;53.178;6.376;2023-11-21T07:57:01;31.80;;;16.92;;
51792;SDS011;37850;53.178;6.376;2023-11-21T07:59:29;36.15;;;18.92;;
51792;SDS011;37850;53.178;6.376;2023-11-21T08:01:55;35.63;;;19.10;;
51792;SDS011;37850;53.178;6.376;2023-11-21T08:04:20;31.85;;;18.13;;
51792;SDS011;37850;53.178;6.376;2023-11-21T08:06:46;36.58;;;20.00;;
51792;SDS011;37850;53.178;6.376;2023-11-21T08:09:12;37.45;;;19.15;;
51792;SDS011;37850;53.178;6.376;2023-11-21T08:11:38;36.70;;;18.58;;
51792;SDS011;37850;53.178;6.376;2023-11-21T08:14:03;37.10;;;18.13;;
51792;SDS011;37850;53.178;6.376;2023-11-21T08:16:30;37.60;;;18.83;;
51792;SDS011;37850;53.178;6.376;2023-11-21T08:18:55;38.33;;;19.10;;
51792;SDS011;37850;53.178;6.376;2023-11-21T08:21:21;43.42;;;21.40;;
51792;SDS011;37850;53.178;6.376;2023-11-21T08:23:50;38.95;;;20.30;;
51792;SDS011;37850;53.178;6.376;2023-11-21T08:26:22;40.03;;;19.38;;
51792;SDS011;37850;53.178;6.376;2023-11-21T08:28:48;40.97;;;18.90;;
51792;SDS011;37850;53.178;6.376;2023-11-21T08:31:14;37.45;;;19.38;;
51792;SDS011;37850;53.178;6.376;2023-11-21T08:33:41;34.97;;;18.58;;
51792;SDS011;37850;53.178;6.376;2023-11-21T08:36:08;35.30;;;18.55;;
51792;SDS011;37850;53.178;6.376;2023-11-21T08:38:36;37.75;;;19.88;;
51792;SDS011;37850;53.178;6.376;2023-11-21T08:41:05;36.85;;;20.60;;
51792;SDS011;37850;53.178;6.376;2023-11-21T08:43:37;36.60;;;19.73;;
51792;SDS011;37850;53.178;6.376;2023-11-21T08:46:06;33.42;;;19.48;;
51792;SDS011;37850;53.178;6.376;2023-11-21T08:48:35;34.83;;;18.85;;
51792;SDS011;37850;53.178;6.376;2023-11-21T08:51:01;36.45;;;18.80;;
51792;SDS011;37850;53.178;6.376;2023-11-21T08:53:29;35.25;;;18.63;;
51792;SDS011;37850;53.178;6.376;2023-11-21T08:55:56;34.15;;;19.10;;
51792;SDS011;37850;53.178;6.376;2023-11-21T08:58:22;31.42;;;18.08;;
51792;SDS011;37850;53.178;6.376;2023-11-21T09:00:47;32.47;;;18.55;;
51792;SDS011;37850;53.178;6.376;2023-11-21T09:03:13;33.88;;;19.15;;
51792;SDS011;37850;53.178;6.376;2023-11-21T09:05:39;29.83;;;17.55;;
51792;SDS011;37850;53.178;6.376;2023-11-21T09:08:05;29.55;;;17.95;;
51792;SDS011;37850;53.178;6.376;2023-11-21T09:10:32;29.35;;;17.52;;
51792;SDS011;37850;53.178;6.376;2023-11-21T09:13:01;27.30;;;17.00;;
51792;SDS011;37850;53.178;6.376;2023-11-21T09:15:27;24.27;;;16.27;;
51792;SDS011;37850;53.178;6.376;2023-11-21T09:17:52;27.05;;;15.30;;
51792;SDS011;37850;53.178;6.376;2023-11-21T09:20:18;23.33;;;14.18;;
51792;SDS011;37850;53.178;6.376;2023-11-21T09:22:47;23.27;;;14.60;;
51792;SDS011;37850;53.178;6.376;2023-11-21T09:25:14;26.70;;;15.15;;
51792;SDS011;37850;53.178;6.376;2023-11-21T09:27:40;24.25;;;14.75;;
51792;SDS011;37850;53.178;6.376;2023-11-21T09:30:06;19.20;;;13.45;;
51792;SDS011;37850;53.178;6.376;2023-11-21T09:32:36;20.60;;;12.77;;
51792;SDS011;37850;53.178;6.376;2023-11-21T09:35:06;19.63;;;13.55;;
51792;SDS011;37850;53.178;6.376;2023-11-21T09:37:33;20.67;;;14.63;;
51792;SDS011;37850;53.178;6.376;2023-11-21T09:39:59;20.77;;;14.27;;
51792;SDS011;37850;53.178;6.376;2023-11-21T09:42:38;23.27;;;14.30;;
51792;SDS011;37850;53.178;6.376;2023-11-21T09:45:23;21.13;;;13.88;;
51792;SDS011;37850;53.178;6.376;2023-11-21T09:47:52;22.45;;;14.25;;
51792;SDS011;37850;53.178;6.376;2023-11-21T09:50:21;23.38;;;13.82;;
51792;SDS011;37850;53.178;6.376;2023-11-21T09:52:54;21.00;;;12.88;;
51792;SDS011;37850;53.178;6.376;2023-11-21T09:55:43;22.63;;;11.98;;
51792;SDS011;37850;53.178;6.376;2023-11-21T09:58:10;18.23;;;12.25;;
51792;SDS011;37850;53.178;6.376;2023-11-21T10:00:46;18.33;;;11.70;;
51792;SDS011;37850;53.178;6.376;2023-11-21T10:03:13;18.50;;;11.90;;
51792;SDS011;37850;53.178;6.376;2023-11-21T10:05:40;16.60;;;10.70;;
51792;SDS011;37850;53.178;6.376;2023-11-21T10:08:08;20.92;;;11.80;;
51792;SDS011;37850;53.178;6.376;2023-11-21T10:10:35;18.83;;;11.88;;
51792;SDS011;37850;53.178;6.376;2023-11-21T10:13:11;17.45;;;10.85;;
51792;SDS011;37850;53.178;6.376;2023-11-21T10:15:41;17.63;;;10.45;;
51792;SDS011;37850;53.178;6.376;2023-11-21T10:18:09;16.05;;;10.13;;
51792;SDS011;37850;53.178;6.376;2023-11-21T10:20:35;16.95;;;10.10;;
51792;SDS011;37850;53.178;6.376;2023-11-21T10:23:03;15.10;;;9.93;;
51792;SDS011;37850;53.178;6.376;2023-11-21T10:25:30;17.27;;;10.20;;
51792;SDS011;37850;53.178;6.376;2023-11-21T10:28:01;20.70;;;10.65;;
51792;SDS011;37850;53.178;6.376;2023-11-21T10:30:39;17.52;;;10.02;;
51792;SDS011;37850;53.178;6.376;2023-11-21T10:33:05;15.82;;;9.85;;
51792;SDS011;37850;53.178;6.376;2023-11-21T10:38:12;15.43;;;9.30;;
51792;SDS011;37850;53.178;6.376;2023-11-21T10:40:40;15.45;;;9.60;;
51792;SDS011;37850;53.178;6.376;2023-11-21T10:43:07;14.48;;;9.25;;
51792;SDS011;37850;53.178;6.376;2023-11-21T10:45:43;15.15;;;8.98;;
51792;SDS011;37850;53.178;6.376;2023-11-21T10:48:13;15.40;;;9.50;;
51792;SDS011;37850;53.178;6.376;2023-11-21T10:50:43;15.27;;;10.00;;
51792;SDS011;37850;53.178;6.376;2023-11-21T10:53:10;15.70;;;8.95;;
51792;SDS011;37850;53.178;6.376;2023-11-21T10:55:39;13.55;;;8.20;;
51792;SDS011;37850;53.178;6.376;2023-11-21T10:58:05;14.93;;;8.68;;
51792;SDS011;37850;53.178;6.376;2023-11-21T11:00:32;13.80;;;8.05;;
51792;SDS011;37850;53.178;6.376;2023-11-21T11:02:58;15.35;;;8.77;;
51792;SDS011;37850;53.178;6.376;2023-11-21T11:05:28;14.38;;;7.80;;
51792;SDS011;37850;53.178;6.376;2023-11-21T11:07:58;13.05;;;8.05;;
51792;SDS011;37850;53.178;6.376;2023-11-21T11:10:28;14.05;;;8.05;;
51792;SDS011;37850;53.178;6.376;2023-11-21T11:12:54;13.45;;;7.35;;
51792;SDS011;37850;53.178;6.376;2023-11-21T11:15:22;15.43;;;7.43;;
51792;SDS011;37850;53.178;6.376;2023-11-21T11:17:49;12.65;;;7.47;;
51792;SDS011;37850;53.178;6.376;2023-11-21T11:20:16;13.32;;;7.68;;
51792;SDS011;37850;53.178;6.376;2023-11-21T11:22:52;11.68;;;6.80;;
51792;SDS011;37850;53.178;6.376;2023-11-21T11:28:21;13.13;;;7.65;;
51792;SDS011;37850;53.178;6.376;2023-11-21T11:33:54;13.10;;;7.80;;
51792;SDS011;37850;53.178;6.376;2023-11-21T11:36:40;13.75;;;7.47;;
51792;SDS011;37850;53.178;6.376;2023-11-21T11:39:29;14.57;;;8.63;;
51792;SDS011;37850;53.178;6.376;2023-11-21T11:41:56;11.90;;;7.10;;
51792;SDS011;37850;53.178;6.376;2023-11-21T11:47:29;11.73;;;7.20;;
51792;SDS011;37850;53.178;6.376;2023-11-21T11:52:33;11.40;;;7.07;;
51792;SDS011;37850;53.178;6.376;2023-11-21T11:55:05;13.52;;;7.35;;
51792;SDS011;37850;53.178;6.376;2023-11-21T11:57:39;11.85;;;7.05;;
51792;SDS011;37850;53.178;6.376;2023-11-21T12:00:13;12.63;;;7.13;;
51792;SDS011;37850;53.178;6.376;2023-11-21T12:02:52;10.48;;;6.22;;
51792;SDS011;37850;53.178;6.376;2023-11-21T12:05:20;11.90;;;6.75;;
51792;SDS011;37850;53.178;6.376;2023-11-21T12:07:51;12.43;;;7.25;;
51792;SDS011;37850;53.178;6.376;2023-11-21T12:10:26;14.05;;;7.15;;
51792;SDS011;37850;53.178;6.376;2023-11-21T12:12:54;12.18;;;7.10;;
51792;SDS011;37850;53.178;6.376;2023-11-21T12:15:24;10.93;;;6.70;;
51792;SDS011;37850;53.178;6.376;2023-11-21T12:17:50;12.20;;;6.75;;
51792;SDS011;37850;53.178;6.376;2023-11-21T12:20:22;12.18;;;6.90;;
51792;SDS011;37850;53.178;6.376;2023-11-21T12:22:49;10.23;;;6.22;;
51792;SDS011;37850;53.178;6.376;2023-11-21T12:25:21;16.98;;;7.03;;
51792;SDS011;37850;53.178;6.376;2023-11-21T12:27:49;10.43;;;6.20;;
51792;SDS011;37850;53.178;6.376;2023-11-21T12:30:19;11.32;;;6.53;;
51792;SDS011;37850;53.178;6.376;2023-11-21T12:32:50;12.43;;;6.45;;
51792;SDS011;37850;53.178;6.376;2023-11-21T12:35:18;11.32;;;6.05;;
51792;SDS011;37850;53.178;6.376;2023-11-21T12:37:48;10.18;;;5.57;;
51792;SDS011;37850;53.178;6.376;2023-11-21T12:40:16;11.18;;;6.25;;
51792;SDS011;37850;53.178;6.376;2023-11-21T12:42:43;14.77;;;6.68;;
51792;SDS011;37850;53.178;6.376;2023-11-21T12:47:48;12.40;;;5.93;;
51792;SDS011;37850;53.178;6.376;2023-11-21T12:50:24;12.13;;;6.07;;
51792;SDS011;37850;53.178;6.376;2023-11-21T12:53:04;11.20;;;6.07;;
51792;SDS011;37850;53.178;6.376;2023-11-21T12:55:35;14.20;;;6.38;;
51792;SDS011;37850;53.178;6.376;2023-11-21T12:58:05;13.27;;;6.97;;
51792;SDS011;37850;53.178;6.376;2023-11-21T13:00:35;11.77;;;6.53;;
51792;SDS011;37850;53.178;6.376;2023-11-21T13:03:08;14.57;;;6.78;;
51792;SDS011;37850;53.178;6.376;2023-11-21T13:05:37;11.20;;;6.63;;
51792;SDS011;37850;53.178;6.376;2023-11-21T13:08:05;11.43;;;6.80;;
51792;SDS011;37850;53.178;6.376;2023-11-21T13:10:35;12.07;;;6.38;;
51792;SDS011;37850;53.178;6.376;2023-11-21T13:13:05;13.82;;;7.40;;
51792;SDS011;37850;53.178;6.376;2023-11-21T13:15:34;12.35;;;6.68;;
51792;SDS011;37850;53.178;6.376;2023-11-21T13:18:03;13.80;;;6.80;;
51792;SDS011;37850;53.178;6.376;2023-11-21T13:20:29;13.13;;;7.40;;
51792;SDS011;37850;53.178;6.376;2023-11-21T13:22:55;13.50;;;7.05;;
51792;SDS011;37850;53.178;6.376;2023-11-21T13:25:27;12.50;;;6.80;;
51792;SDS011;37850;53.178;6.376;2023-11-21T13:27:57;16.33;;;7.20;;
51792;SDS011;37850;53.178;6.376;2023-11-21T13:30:26;14.40;;;8.13;;
51792;SDS011;37850;53.178;6.376;2023-11-21T13:32:59;15.35;;;8.15;;
51792;SDS011;37850;53.178;6.376;2023-11-21T13:35:31;13.75;;;7.50;;
51792;SDS011;37850;53.178;6.376;2023-11-21T13:38:07;14.93;;;7.70;;
51792;SDS011;37850;53.178;6.376;2023-11-21T13:40:35;14.25;;;6.90;;
51792;SDS011;37850;53.178;6.376;2023-11-21T13:43:10;12.75;;;7.00;;
51792;SDS011;37850;53.178;6.376;2023-11-21T13:45:38;12.38;;;7.00;;
51792;SDS011;37850;53.178;6.376;2023-11-21T13:48:05;14.15;;;7.60;;
51792;SDS011;37850;53.178;6.376;2023-11-21T13:50:38;13.10;;;7.40;;
51792;SDS011;37850;53.178;6.376;2023-11-21T13:53:20;12.93;;;6.90;;
51792;SDS011;37850;53.178;6.376;2023-11-21T13:55:50;11.87;;;6.70;;
51792;SDS011;37850;53.178;6.376;2023-11-21T13:58:19;13.10;;;6.65;;
51792;SDS011;37850;53.178;6.376;2023-11-21T14:00:57;13.82;;;6.18;;
51792;SDS011;37850;53.178;6.376;2023-11-21T14:03:23;9.70;;;5.72;;
51792;SDS011;37850;53.178;6.376;2023-11-21T14:05:57;12.27;;;6.43;;
51792;SDS011;37850;53.178;6.376;2023-11-21T14:08:25;12.35;;;5.90;;
51792;SDS011;37850;53.178;6.376;2023-11-21T14:10:54;10.25;;;5.80;;
51792;SDS011;37850;53.178;6.376;2023-11-21T14:13:25;11.20;;;5.70;;
51792;SDS011;37850;53.178;6.376;2023-11-21T14:15:51;10.13;;;5.82;;
51792;SDS011;37850;53.178;6.376;2023-11-21T14:18:25;8.88;;;5.47;;
51792;SDS011;37850;53.178;6.376;2023-11-21T14:21:16;8.13;;;4.38;;
51792;SDS011;37850;53.178;6.376;2023-11-21T14:23:41;10.38;;;4.30;;
51792;SDS011;37850;53.178;6.376;2023-11-21T14:26:08;11.18;;;4.63;;
51792;SDS011;37850;53.178;6.376;2023-11-21T14:28:33;9.07;;;4.45;;
51792;SDS011;37850;53.178;6.376;2023-11-21T14:31:02;8.80;;;4.80;;
51792;SDS011;37850;53.178;6.376;2023-11-21T14:33:28;10.85;;;4.10;;
51792;SDS011;37850;53.178;6.376;2023-11-21T14:35:54;10.65;;;4.57;;
51792;SDS011;37850;53.178;6.376;2023-11-21T14:38:20;8.13;;;4.13;;
51792;SDS011;37850;53.178;6.376;2023-11-21T14:40:46;8.93;;;4.38;;
51792;SDS011;37850;53.178;6.376;2023-11-21T14:43:12;10.68;;;4.22;;
51792;SDS011;37850;53.178;6.376;2023-11-21T14:45:38;9.07;;;3.85;;
51792;SDS011;37850;53.178;6.376;2023-11-21T14:48:04;10.95;;;4.28;;
51792;SDS011;37850;53.178;6.376;2023-11-21T14:50:30;7.97;;;4.10;;